sensor_id;sensor_type;location;lat;lon;timestamp;P1;P2;P0
77777;PMS5003;66966;-34.746;138.604;2023-06-19T00:00:17;2;1;
77777;PMS5003;66966;-34.746;138.604;2023-06-19T00:02:42;2;1;
77777;PMS5003;66966;-34.746;138.604;2023-06-19T00:05:08;1;1;
77777;PMS5003;66966;-34.746;138.604;2023-06-19T00:07:34;1;1;
77777;PMS5003;66966;-34.746;138.604;2023-06-19T00:10:00;1;1;
77777;PMS5003;66966;-34.746;138.604;2023-06-19T00:12:25;3;2;
77777;PMS5003;66966;-34.746;138.604;2023-06-19T00:14:51;2;2;
77777;PMS5003;66966;-34.746;138.604;2023-06-19T00:17:16;0;0;
77777;PMS5003;66966;-34.746;138.604;2023-06-19T00:19:42;2;1;
77777;PMS5003;66966;-34.746;138.604;2023-06-19T00:22:08;9;8;
77777;PMS5003;66966;-34.746;138.604;2023-06-19T00:24:33;3;1;
77777;PMS5003;66966;-34.746;138.604;2023-06-19T00:26:59;1;0;
77777;PMS5003;66966;-34.746;138.604;2023-06-19T00:29:25;1;1;
77777;PMS5003;66966;-34.746;138.604;2023-06-19T00:31:50;1;1;
77777;PMS5003;66966;-34.746;138.604;2023-06-19T00:34:17;2;2;
77777;PMS5003;66966;-34.746;138.604;2023-06-19T00:36:42;3;1;
77777;PMS5003;66966;-34.746;138.604;2023-06-19T00:39:07;0;0;
77777;PMS5003;66966;-34.746;138.604;2023-06-19T00:41:33;5;2;
77777;PMS5003;66966;-34.746;138.604;2023-06-19T00:43:58;3;2;
77777;PMS5003;66966;-34.746;138.604;2023-06-19T00:46:24;1;1;
77777;PMS5003;66966;-34.746;138.604;2023-06-19T00:48:50;3;2;
77777;PMS5003;66966;-34.746;138.604;2023-06-19T00:51:15;1;1;
77777;PMS5003;66966;-34.746;138.604;2023-06-19T00:53:41;3;1;
77777;PMS5003;66966;-34.746;138.604;2023-06-19T00:56:07;1;1;
77777;PMS5003;66966;-34.746;138.604;2023-06-19T00:58:32;1;1;
77777;PMS5003;66966;-34.746;138.604;2023-06-19T01:00:58;2;1;
77777;PMS5003;66966;-34.746;138.604;2023-06-19T01:03:23;1;1;
77777;PMS5003;66966;-34.746;138.604;2023-06-19T01:05:49;3;2;
77777;PMS5003;66966;-34.746;138.604;2023-06-19T01:08:18;1;1;
77777;PMS5003;66966;-34.746;138.604;2023-06-19T01:10:42;2;1;
77777;PMS5003;66966;-34.746;138.604;2023-06-19T01:13:06;0;0;
77777;PMS5003;66966;-34.746;138.604;2023-06-19T01:15:31;2;1;
77777;PMS5003;66966;-34.746;138.604;2023-06-19T01:17:57;3;2;
77777;PMS5003;66966;-34.746;138.604;2023-06-19T01:20:23;2;1;
77777;PMS5003;66966;-34.746;138.604;2023-06-19T01:22:49;1;1;
77777;PMS5003;66966;-34.746;138.604;2023-06-19T01:25:14;2;1;
77777;PMS5003;66966;-34.746;138.604;2023-06-19T01:27:40;2;1;
77777;PMS5003;66966;-34.746;138.604;2023-06-19T01:30:06;1;1;
77777;PMS5003;66966;-34.746;138.604;2023-06-19T01:32:31;3;2;
77777;PMS5003;66966;-34.746;138.604;2023-06-19T01:34:57;2;2;
77777;PMS5003;66966;-34.746;138.604;2023-06-19T01:37:22;1;0;
77777;PMS5003;66966;-34.746;138.604;2023-06-19T01:39:48;2;1;
77777;PMS5003;66966;-34.746;138.604;2023-06-19T01:42:13;0;0;
77777;PMS5003;66966;-34.746;138.604;2023-06-19T01:44:39;1;1;
77777;PMS5003;66966;-34.746;138.604;2023-06-19T01:47:08;1;1;
77777;PMS5003;66966;-34.746;138.604;2023-06-19T01:49:30;2;1;
77777;PMS5003;66966;-34.746;138.604;2023-06-19T01:51:56;1;0;
77777;PMS5003;66966;-34.746;138.604;2023-06-19T01:54:21;0;0;
77777;PMS5003;66966;-34.746;138.604;2023-06-19T01:56:47;1;0;
77777;PMS5003;66966;-34.746;138.604;2023-06-19T01:59:13;1;1;
77777;PMS5003;66966;-34.746;138.604;2023-06-19T02:01:38;3;2;
77777;PMS5003;66966;-34.746;138.604;2023-06-19T02:04:04;1;1;
77777;PMS5003;66966;-34.746;138.604;2023-06-19T02:06:30;1;0;
77777;PMS5003;66966;-34.746;138.604;2023-06-19T02:08:55;1;1;
77777;PMS5003;66966;-34.746;138.604;2023-06-19T02:11:21;2;2;
77777;PMS5003;66966;-34.746;138.604;2023-06-19T02:13:46;1;1;
77777;PMS5003;66966;-34.746;138.604;2023-06-19T02:16:12;1;1;
77777;PMS5003;66966;-34.746;138.604;2023-06-19T02:18:38;0;0;
77777;PMS5003;66966;-34.746;138.604;2023-06-19T02:21:03;0;0;
77777;PMS5003;66966;-34.746;138.604;2023-06-19T02:23:29;0;0;
77777;PMS5003;66966;-34.746;138.604;2023-06-19T02:25:54;1;1;
77777;PMS5003;66966;-34.746;138.604;2023-06-19T02:28:20;2;1;
77777;PMS5003;66966;-34.746;138.604;2023-06-19T02:30:46;2;1;
77777;PMS5003;66966;-34.746;138.604;2023-06-19T02:33:11;0;0;
77777;PMS5003;66966;-34.746;138.604;2023-06-19T02:35:37;0;0;
77777;PMS5003;66966;-34.746;138.604;2023-06-19T02:38:02;1;0;
77777;PMS5003;66966;-34.746;138.604;2023-06-19T02:40:28;1;1;
77777;PMS5003;66966;-34.746;138.604;2023-06-19T02:42:54;1;0;
77777;PMS5003;66966;-34.746;138.604;2023-06-19T02:45:19;0;0;
77777;PMS5003;66966;-34.746;138.604;2023-06-19T02:47:45;0;0;
77777;PMS5003;66966;-34.746;138.604;2023-06-19T02:50:11;1;1;
77777;PMS5003;66966;-34.746;138.604;2023-06-19T02:52:36;0;0;
77777;PMS5003;66966;-34.746;138.604;2023-06-19T02:55:02;0;0;
77777;PMS5003;66966;-34.746;138.604;2023-06-19T02:57:27;1;0;
77777;PMS5003;66966;-34.746;138.604;2023-06-19T02:59:53;0;0;
77777;PMS5003;66966;-34.746;138.604;2023-06-19T03:02:18;2;1;
77777;PMS5003;66966;-34.746;138.604;2023-06-19T03:04:44;1;0;
77777;PMS5003;66966;-34.746;138.604;2023-06-19T03:07:10;1;1;
77777;PMS5003;66966;-34.746;138.604;2023-06-19T03:09:35;1;1;
77777;PMS5003;66966;-34.746;138.604;2023-06-19T03:12:01;2;1;
77777;PMS5003;66966;-34.746;138.604;2023-06-19T03:14:26;2;0;
77777;PMS5003;66966;-34.746;138.604;2023-06-19T03:16:52;1;1;
77777;PMS5003;66966;-34.746;138.604;2023-06-19T03:19:18;1;1;
77777;PMS5003;66966;-34.746;138.604;2023-06-19T03:21:43;0;0;
77777;PMS5003;66966;-34.746;138.604;2023-06-19T03:24:09;1;0;
77777;PMS5003;66966;-34.746;138.604;2023-06-19T03:26:34;0;0;
77777;PMS5003;66966;-34.746;138.604;2023-06-19T03:29:00;2;1;
77777;PMS5003;66966;-34.746;138.604;2023-06-19T03:31:26;0;0;
77777;PMS5003;66966;-34.746;138.604;2023-06-19T03:33:51;1;0;
77777;PMS5003;66966;-34.746;138.604;2023-06-19T03:36:17;1;1;
77777;PMS5003;66966;-34.746;138.604;2023-06-19T03:38:42;1;1;
77777;PMS5003;66966;-34.746;138.604;2023-06-19T03:41:07;1;0;
77777;PMS5003;66966;-34.746;138.604;2023-06-19T03:43:33;2;1;
77777;PMS5003;66966;-34.746;138.604;2023-06-19T03:45:59;1;0;
77777;PMS5003;66966;-34.746;138.604;2023-06-19T03:48:25;0;0;
77777;PMS5003;66966;-34.746;138.604;2023-06-19T03:50:50;1;1;
77777;PMS5003;66966;-34.746;138.604;2023-06-19T03:53:15;0;0;
77777;PMS5003;66966;-34.746;138.604;2023-06-19T03:55:40;0;0;
77777;PMS5003;66966;-34.746;138.604;2023-06-19T03:58:06;0;0;
77777;PMS5003;66966;-34.746;138.604;2023-06-19T04:00:32;0;0;
77777;PMS5003;66966;-34.746;138.604;2023-06-19T04:02:57;0;0;
77777;PMS5003;66966;-34.746;138.604;2023-06-19T04:05:23;0;0;
77777;PMS5003;66966;-34.746;138.604;2023-06-19T04:07:48;0;0;
77777;PMS5003;66966;-34.746;138.604;2023-06-19T04:10:14;1;0;
77777;PMS5003;66966;-34.746;138.604;2023-06-19T04:12:40;3;1;
77777;PMS5003;66966;-34.746;138.604;2023-06-19T04:15:05;1;1;
77777;PMS5003;66966;-34.746;138.604;2023-06-19T04:17:31;0;0;
77777;PMS5003;66966;-34.746;138.604;2023-06-19T04:19:56;1;1;
77777;PMS5003;66966;-34.746;138.604;2023-06-19T04:22:22;0;0;
77777;PMS5003;66966;-34.746;138.604;2023-06-19T04:24:48;0;0;
77777;PMS5003;66966;-34.746;138.604;2023-06-19T04:27:13;0;0;
77777;PMS5003;66966;-34.746;138.604;2023-06-19T04:29:38;1;0;
77777;PMS5003;66966;-34.746;138.604;2023-06-19T04:32:04;0;0;
77777;PMS5003;66966;-34.746;138.604;2023-06-19T04:34:30;0;0;
77777;PMS5003;66966;-34.746;138.604;2023-06-19T04:36:56;1;0;
77777;PMS5003;66966;-34.746;138.604;2023-06-19T04:39:21;1;1;
77777;PMS5003;66966;-34.746;138.604;2023-06-19T04:41:46;2;0;
77777;PMS5003;66966;-34.746;138.604;2023-06-19T04:44:12;1;0;
77777;PMS5003;66966;-34.746;138.604;2023-06-19T04:46:38;1;1;
77777;PMS5003;66966;-34.746;138.604;2023-06-19T04:49:03;0;0;
77777;PMS5003;66966;-34.746;138.604;2023-06-19T04:51:29;0;0;
77777;PMS5003;66966;-34.746;138.604;2023-06-19T04:53:54;1;0;
77777;PMS5003;66966;-34.746;138.604;2023-06-19T04:56:20;0;0;
77777;PMS5003;66966;-34.746;138.604;2023-06-19T04:58:45;1;1;
77777;PMS5003;66966;-34.746;138.604;2023-06-19T05:01:12;1;0;
77777;PMS5003;66966;-34.746;138.604;2023-06-19T05:03:37;1;1;
77777;PMS5003;66966;-34.746;138.604;2023-06-19T05:06:02;0;0;
77777;PMS5003;66966;-34.746;138.604;2023-06-19T05:08:28;1;0;
77777;PMS5003;66966;-34.746;138.604;2023-06-19T05:10:53;1;0;
77777;PMS5003;66966;-34.746;138.604;2023-06-19T05:13:19;0;0;
77777;PMS5003;66966;-34.746;138.604;2023-06-19T05:15:44;0;0;
77777;PMS5003;66966;-34.746;138.604;2023-06-19T05:18:10;0;0;
77777;PMS5003;66966;-34.746;138.604;2023-06-19T05:20:36;1;0;
77777;PMS5003;66966;-34.746;138.604;2023-06-19T05:23:01;1;1;
77777;PMS5003;66966;-34.746;138.604;2023-06-19T05:25:27;0;0;
77777;PMS5003;66966;-34.746;138.604;2023-06-19T05:27:52;1;0;
77777;PMS5003;66966;-34.746;138.604;2023-06-19T05:30:18;0;0;
77777;PMS5003;66966;-34.746;138.604;2023-06-19T05:32:44;1;1;
77777;PMS5003;66966;-34.746;138.604;2023-06-19T05:35:09;0;0;
77777;PMS5003;66966;-34.746;138.604;2023-06-19T05:37:35;0;0;
77777;PMS5003;66966;-34.746;138.604;2023-06-19T05:40:00;0;0;
77777;PMS5003;66966;-34.746;138.604;2023-06-19T05:42:26;1;0;
77777;PMS5003;66966;-34.746;138.604;2023-06-19T05:44:52;0;0;
77777;PMS5003;66966;-34.746;138.604;2023-06-19T05:47:17;0;0;
77777;PMS5003;66966;-34.746;138.604;2023-06-19T05:49:43;1;0;
77777;PMS5003;66966;-34.746;138.604;2023-06-19T05:52:08;2;1;
77777;PMS5003;66966;-34.746;138.604;2023-06-19T05:54:34;0;0;
77777;PMS5003;66966;-34.746;138.604;2023-06-19T05:56:59;1;1;
77777;PMS5003;66966;-34.746;138.604;2023-06-19T05:59:25;1;0;
77777;PMS5003;66966;-34.746;138.604;2023-06-19T06:01:51;0;0;
77777;PMS5003;66966;-34.746;138.604;2023-06-19T06:04:16;1;0;
77777;PMS5003;66966;-34.746;138.604;2023-06-19T06:06:42;1;0;
77777;PMS5003;66966;-34.746;138.604;2023-06-19T06:09:07;2;0;
77777;PMS5003;66966;-34.746;138.604;2023-06-19T06:11:33;0;0;
77777;PMS5003;66966;-34.746;138.604;2023-06-19T06:13:58;2;0;
77777;PMS5003;66966;-34.746;138.604;2023-06-19T06:16:24;0;0;
77777;PMS5003;66966;-34.746;138.604;2023-06-19T06:18:50;2;1;
77777;PMS5003;66966;-34.746;138.604;2023-06-19T06:21:15;2;0;
77777;PMS5003;66966;-34.746;138.604;2023-06-19T06:23:41;1;1;
77777;PMS5003;66966;-34.746;138.604;2023-06-19T06:26:07;1;0;
77777;PMS5003;66966;-34.746;138.604;2023-06-19T06:28:32;1;0;
77777;PMS5003;66966;-34.746;138.604;2023-06-19T06:30:57;0;0;
77777;PMS5003;66966;-34.746;138.604;2023-06-19T06:33:23;0;0;
77777;PMS5003;66966;-34.746;138.604;2023-06-19T06:35:49;0;0;
77777;PMS5003;66966;-34.746;138.604;2023-06-19T06:38:14;0;0;
77777;PMS5003;66966;-34.746;138.604;2023-06-19T06:40:40;0;0;
77777;PMS5003;66966;-34.746;138.604;2023-06-19T06:43:05;0;0;
77777;PMS5003;66966;-34.746;138.604;2023-06-19T06:45:31;0;0;
77777;PMS5003;66966;-34.746;138.604;2023-06-19T06:47:57;0;0;
77777;PMS5003;66966;-34.746;138.604;2023-06-19T06:50:22;1;1;
77777;PMS5003;66966;-34.746;138.604;2023-06-19T06:52:47;1;0;
77777;PMS5003;66966;-34.746;138.604;2023-06-19T06:55:13;1;0;
77777;PMS5003;66966;-34.746;138.604;2023-06-19T06:57:39;2;0;
77777;PMS5003;66966;-34.746;138.604;2023-06-19T07:00:05;0;0;
77777;PMS5003;66966;-34.746;138.604;2023-06-19T07:02:30;1;0;
77777;PMS5003;66966;-34.746;138.604;2023-06-19T07:04:55;1;1;
77777;PMS5003;66966;-34.746;138.604;2023-06-19T07:07:21;0;0;
77777;PMS5003;66966;-34.746;138.604;2023-06-19T07:09:47;4;3;
77777;PMS5003;66966;-34.746;138.604;2023-06-19T07:12:13;1;0;
77777;PMS5003;66966;-34.746;138.604;2023-06-19T07:14:38;1;0;
77777;PMS5003;66966;-34.746;138.604;2023-06-19T07:17:04;2;1;
77777;PMS5003;66966;-34.746;138.604;2023-06-19T07:19:29;1;1;
77777;PMS5003;66966;-34.746;138.604;2023-06-19T07:21:55;0;0;
77777;PMS5003;66966;-34.746;138.604;2023-06-19T07:24:21;0;0;
77777;PMS5003;66966;-34.746;138.604;2023-06-19T07:26:46;0;0;
77777;PMS5003;66966;-34.746;138.604;2023-06-19T07:29:12;0;0;
77777;PMS5003;66966;-34.746;138.604;2023-06-19T07:31:38;1;0;
77777;PMS5003;66966;-34.746;138.604;2023-06-19T07:34:04;0;0;
77777;PMS5003;66966;-34.746;138.604;2023-06-19T07:36:29;1;0;
77777;PMS5003;66966;-34.746;138.604;2023-06-19T07:38:54;0;0;
77777;PMS5003;66966;-34.746;138.604;2023-06-19T07:41:20;0;0;
77777;PMS5003;66966;-34.746;138.604;2023-06-19T07:43:46;1;1;
77777;PMS5003;66966;-34.746;138.604;2023-06-19T07:46:12;1;1;
77777;PMS5003;66966;-34.746;138.604;2023-06-19T07:48:37;2;2;
77777;PMS5003;66966;-34.746;138.604;2023-06-19T07:51:03;1;0;
77777;PMS5003;66966;-34.746;138.604;2023-06-19T07:53:28;0;0;
77777;PMS5003;66966;-34.746;138.604;2023-06-19T07:55:54;1;1;
77777;PMS5003;66966;-34.746;138.604;2023-06-19T07:58:20;1;1;
77777;PMS5003;66966;-34.746;138.604;2023-06-19T08:00:45;1;1;
77777;PMS5003;66966;-34.746;138.604;2023-06-19T08:03:11;1;1;
77777;PMS5003;66966;-34.746;138.604;2023-06-19T08:05:37;2;1;
77777;PMS5003;66966;-34.746;138.604;2023-06-19T08:08:02;3;2;
77777;PMS5003;66966;-34.746;138.604;2023-06-19T08:10:28;2;2;
77777;PMS5003;66966;-34.746;138.604;2023-06-19T08:12:54;2;2;
77777;PMS5003;66966;-34.746;138.604;2023-06-19T08:15:19;2;2;
77777;PMS5003;66966;-34.746;138.604;2023-06-19T08:17:45;2;1;
77777;PMS5003;66966;-34.746;138.604;2023-06-19T08:20:12;2;1;
77777;PMS5003;66966;-34.746;138.604;2023-06-19T08:22:37;3;1;
77777;PMS5003;66966;-34.746;138.604;2023-06-19T08:25:04;4;2;
77777;PMS5003;66966;-34.746;138.604;2023-06-19T08:27:28;5;4;
77777;PMS5003;66966;-34.746;138.604;2023-06-19T08:29:54;1;1;
77777;PMS5003;66966;-34.746;138.604;2023-06-19T08:32:19;2;0;
77777;PMS5003;66966;-34.746;138.604;2023-06-19T08:34:46;2;2;
77777;PMS5003;66966;-34.746;138.604;2023-06-19T08:37:11;1;1;
77777;PMS5003;66966;-34.746;138.604;2023-06-19T08:39:36;2;1;
77777;PMS5003;66966;-34.746;138.604;2023-06-19T08:42:02;2;2;
77777;PMS5003;66966;-34.746;138.604;2023-06-19T08:44:28;1;0;
77777;PMS5003;66966;-34.746;138.604;2023-06-19T08:46:53;2;2;
77777;PMS5003;66966;-34.746;138.604;2023-06-19T08:49:19;1;1;
77777;PMS5003;66966;-34.746;138.604;2023-06-19T08:51:45;2;2;
77777;PMS5003;66966;-34.746;138.604;2023-06-19T08:54:11;5;3;
77777;PMS5003;66966;-34.746;138.604;2023-06-19T08:56:37;3;3;
77777;PMS5003;66966;-34.746;138.604;2023-06-19T08:59:09;5;5;
77777;PMS5003;66966;-34.746;138.604;2023-06-19T09:01:28;4;4;
77777;PMS5003;66966;-34.746;138.604;2023-06-19T09:03:54;6;5;
77777;PMS5003;66966;-34.746;138.604;2023-06-19T09:06:19;5;4;
77777;PMS5003;66966;-34.746;138.604;2023-06-19T09:08:46;5;3;
77777;PMS5003;66966;-34.746;138.604;2023-06-19T09:11:11;4;4;
77777;PMS5003;66966;-34.746;138.604;2023-06-19T09:13:37;4;3;
77777;PMS5003;66966;-34.746;138.604;2023-06-19T09:16:03;4;3;
77777;PMS5003;66966;-34.746;138.604;2023-06-19T09:18:29;4;4;
77777;PMS5003;66966;-34.746;138.604;2023-06-19T09:20:54;4;3;
77777;PMS5003;66966;-34.746;138.604;2023-06-19T09:23:20;6;5;
77777;PMS5003;66966;-34.746;138.604;2023-06-19T09:25:46;7;7;
77777;PMS5003;66966;-34.746;138.604;2023-06-19T09:30:37;8;8;
77777;PMS5003;66966;-34.746;138.604;2023-06-19T09:33:06;10;10;
77777;PMS5003;66966;-34.746;138.604;2023-06-19T09:35:28;14;13;
77777;PMS5003;66966;-34.746;138.604;2023-06-19T09:37:54;13;13;
77777;PMS5003;66966;-34.746;138.604;2023-06-19T09:40:20;14;13;
77777;PMS5003;66966;-34.746;138.604;2023-06-19T09:42:45;11;11;
77777;PMS5003;66966;-34.746;138.604;2023-06-19T09:45:12;16;13;
77777;PMS5003;66966;-34.746;138.604;2023-06-19T09:47:37;20;18;
77777;PMS5003;66966;-34.746;138.604;2023-06-19T09:50:02;21;19;
77777;PMS5003;66966;-34.746;138.604;2023-06-19T09:52:27;18;18;
77777;PMS5003;66966;-34.746;138.604;2023-06-19T09:54:53;24;21;
77777;PMS5003;66966;-34.746;138.604;2023-06-19T09:57:18;26;24;
77777;PMS5003;66966;-34.746;138.604;2023-06-19T09:59:43;20;18;
77777;PMS5003;66966;-34.746;138.604;2023-06-19T10:02:09;18;17;
77777;PMS5003;66966;-34.746;138.604;2023-06-19T10:07:01;21;20;
77777;PMS5003;66966;-34.746;138.604;2023-06-19T10:09:32;21;18;
77777;PMS5003;66966;-34.746;138.604;2023-06-19T10:11:51;14;14;
77777;PMS5003;66966;-34.746;138.604;2023-06-19T10:14:16;19;18;
77777;PMS5003;66966;-34.746;138.604;2023-06-19T10:16:42;20;18;
77777;PMS5003;66966;-34.746;138.604;2023-06-19T10:19:11;19;18;
77777;PMS5003;66966;-34.746;138.604;2023-06-19T10:21:43;18;17;
77777;PMS5003;66966;-34.746;138.604;2023-06-19T10:23:58;18;18;
77777;PMS5003;66966;-34.746;138.604;2023-06-19T10:28:48;17;17;
77777;PMS5003;66966;-34.746;138.604;2023-06-19T10:31:14;18;18;
77777;PMS5003;66966;-34.746;138.604;2023-06-19T10:33:40;16;15;
77777;PMS5003;66966;-34.746;138.604;2023-06-19T10:38:30;18;15;
77777;PMS5003;66966;-34.746;138.604;2023-06-19T10:40:56;21;19;
77777;PMS5003;66966;-34.746;138.604;2023-06-19T10:43:22;17;15;
77777;PMS5003;66966;-34.746;138.604;2023-06-19T10:45:46;14;14;
77777;PMS5003;66966;-34.746;138.604;2023-06-19T10:48:17;14;13;
77777;PMS5003;66966;-34.746;138.604;2023-06-19T10:50:38;19;18;
77777;PMS5003;66966;-34.746;138.604;2023-06-19T10:53:03;23;20;
77777;PMS5003;66966;-34.746;138.604;2023-06-19T10:55:28;17;13;
77777;PMS5003;66966;-34.746;138.604;2023-06-19T10:57:54;17;17;
77777;PMS5003;66966;-34.746;138.604;2023-06-19T11:00:23;17;16;
77777;PMS5003;66966;-34.746;138.604;2023-06-19T11:02:45;17;17;
77777;PMS5003;66966;-34.746;138.604;2023-06-19T11:05:10;24;22;
77777;PMS5003;66966;-34.746;138.604;2023-06-19T11:07:36;26;24;
77777;PMS5003;66966;-34.746;138.604;2023-06-19T11:10:02;18;16;
77777;PMS5003;66966;-34.746;138.604;2023-06-19T11:12:27;18;16;
77777;PMS5003;66966;-34.746;138.604;2023-06-19T11:14:53;20;19;
77777;PMS5003;66966;-34.746;138.604;2023-06-19T11:17:18;18;17;
77777;PMS5003;66966;-34.746;138.604;2023-06-19T11:19:43;16;15;
77777;PMS5003;66966;-34.746;138.604;2023-06-19T11:22:09;15;13;
77777;PMS5003;66966;-34.746;138.604;2023-06-19T11:24:34;15;15;
77777;PMS5003;66966;-34.746;138.604;2023-06-19T11:27:00;19;15;
77777;PMS5003;66966;-34.746;138.604;2023-06-19T11:29:26;14;13;
77777;PMS5003;66966;-34.746;138.604;2023-06-19T11:31:53;14;14;
77777;PMS5003;66966;-34.746;138.604;2023-06-19T11:34:17;17;16;
77777;PMS5003;66966;-34.746;138.604;2023-06-19T11:36:42;19;17;
77777;PMS5003;66966;-34.746;138.604;2023-06-19T11:39:09;23;23;
77777;PMS5003;66966;-34.746;138.604;2023-06-19T11:41:33;24;24;
77777;PMS5003;66966;-34.746;138.604;2023-06-19T11:43:59;24;24;
77777;PMS5003;66966;-34.746;138.604;2023-06-19T11:46:28;24;23;
77777;PMS5003;66966;-34.746;138.604;2023-06-19T11:48:50;23;22;
77777;PMS5003;66966;-34.746;138.604;2023-06-19T11:51:16;24;22;
77777;PMS5003;66966;-34.746;138.604;2023-06-19T11:53:41;19;18;
77777;PMS5003;66966;-34.746;138.604;2023-06-19T11:56:06;19;18;
77777;PMS5003;66966;-34.746;138.604;2023-06-19T11:58:31;21;18;
77777;PMS5003;66966;-34.746;138.604;2023-06-19T12:00:57;14;12;
77777;PMS5003;66966;-34.746;138.604;2023-06-19T12:03:22;12;11;
77777;PMS5003;66966;-34.746;138.604;2023-06-19T12:05:48;13;13;
77777;PMS5003;66966;-34.746;138.604;2023-06-19T12:08:14;14;13;
77777;PMS5003;66966;-34.746;138.604;2023-06-19T12:10:39;15;15;
77777;PMS5003;66966;-34.746;138.604;2023-06-19T12:13:04;14;13;
77777;PMS5003;66966;-34.746;138.604;2023-06-19T12:15:30;12;12;
77777;PMS5003;66966;-34.746;138.604;2023-06-19T12:17:56;13;13;
77777;PMS5003;66966;-34.746;138.604;2023-06-19T12:20:22;15;13;
77777;PMS5003;66966;-34.746;138.604;2023-06-19T12:22:47;15;14;
77777;PMS5003;66966;-34.746;138.604;2023-06-19T12:25:12;12;11;
77777;PMS5003;66966;-34.746;138.604;2023-06-19T12:27:38;14;11;
77777;PMS5003;66966;-34.746;138.604;2023-06-19T12:30:04;15;14;
77777;PMS5003;66966;-34.746;138.604;2023-06-19T12:32:30;18;18;
77777;PMS5003;66966;-34.746;138.604;2023-06-19T12:34:55;15;14;
77777;PMS5003;66966;-34.746;138.604;2023-06-19T12:37:21;16;15;
77777;PMS5003;66966;-34.746;138.604;2023-06-19T12:39:47;15;14;
77777;PMS5003;66966;-34.746;138.604;2023-06-19T12:42:12;16;15;
77777;PMS5003;66966;-34.746;138.604;2023-06-19T12:44:37;15;15;
77777;PMS5003;66966;-34.746;138.604;2023-06-19T12:47:02;17;17;
77777;PMS5003;66966;-34.746;138.604;2023-06-19T12:49:28;15;15;
77777;PMS5003;66966;-34.746;138.604;2023-06-19T12:51:53;17;15;
77777;PMS5003;66966;-34.746;138.604;2023-06-19T12:54:19;17;16;
77777;PMS5003;66966;-34.746;138.604;2023-06-19T12:56:44;16;16;
77777;PMS5003;66966;-34.746;138.604;2023-06-19T12:59:10;18;14;
77777;PMS5003;66966;-34.746;138.604;2023-06-19T13:01:36;20;17;
77777;PMS5003;66966;-34.746;138.604;2023-06-19T13:04:01;18;15;
77777;PMS5003;66966;-34.746;138.604;2023-06-19T13:06:26;19;16;
77777;PMS5003;66966;-34.746;138.604;2023-06-19T13:08:52;17;16;
77777;PMS5003;66966;-34.746;138.604;2023-06-19T13:11:17;16;16;
77777;PMS5003;66966;-34.746;138.604;2023-06-19T13:13:43;16;16;
77777;PMS5003;66966;-34.746;138.604;2023-06-19T13:16:08;16;15;
77777;PMS5003;66966;-34.746;138.604;2023-06-19T13:18:34;20;19;
77777;PMS5003;66966;-34.746;138.604;2023-06-19T13:21:00;12;12;
77777;PMS5003;66966;-34.746;138.604;2023-06-19T13:23:25;11;11;
77777;PMS5003;66966;-34.746;138.604;2023-06-19T13:25:51;12;10;
77777;PMS5003;66966;-34.746;138.604;2023-06-19T13:28:17;13;11;
77777;PMS5003;66966;-34.746;138.604;2023-06-19T13:30:42;10;9;
77777;PMS5003;66966;-34.746;138.604;2023-06-19T13:33:08;14;12;
77777;PMS5003;66966;-34.746;138.604;2023-06-19T13:35:34;12;11;
77777;PMS5003;66966;-34.746;138.604;2023-06-19T13:38:00;11;11;
77777;PMS5003;66966;-34.746;138.604;2023-06-19T13:40:25;12;11;
77777;PMS5003;66966;-34.746;138.604;2023-06-19T13:42:51;14;14;
77777;PMS5003;66966;-34.746;138.604;2023-06-19T13:45:17;13;12;
77777;PMS5003;66966;-34.746;138.604;2023-06-19T13:47:43;11;10;
77777;PMS5003;66966;-34.746;138.604;2023-06-19T13:50:09;14;13;
77777;PMS5003;66966;-34.746;138.604;2023-06-19T13:52:34;14;12;
77777;PMS5003;66966;-34.746;138.604;2023-06-19T13:55:00;10;10;
77777;PMS5003;66966;-34.746;138.604;2023-06-19T13:57:25;11;9;
77777;PMS5003;66966;-34.746;138.604;2023-06-19T13:59:51;9;9;
77777;PMS5003;66966;-34.746;138.604;2023-06-19T14:02:17;10;9;
77777;PMS5003;66966;-34.746;138.604;2023-06-19T14:04:42;15;12;
77777;PMS5003;66966;-34.746;138.604;2023-06-19T14:07:08;10;9;
77777;PMS5003;66966;-34.746;138.604;2023-06-19T14:09:34;11;11;
77777;PMS5003;66966;-34.746;138.604;2023-06-19T14:12:00;12;11;
77777;PMS5003;66966;-34.746;138.604;2023-06-19T14:14:26;12;12;
77777;PMS5003;66966;-34.746;138.604;2023-06-19T14:16:51;12;10;
77777;PMS5003;66966;-34.746;138.604;2023-06-19T14:19:17;8;8;
77777;PMS5003;66966;-34.746;138.604;2023-06-19T14:21:43;9;8;
77777;PMS5003;66966;-34.746;138.604;2023-06-19T14:24:09;12;9;
77777;PMS5003;66966;-34.746;138.604;2023-06-19T14:26:35;8;8;
77777;PMS5003;66966;-34.746;138.604;2023-06-19T14:29:00;8;8;
77777;PMS5003;66966;-34.746;138.604;2023-06-19T14:31:26;9;7;
77777;PMS5003;66966;-34.746;138.604;2023-06-19T14:33:53;6;6;
77777;PMS5003;66966;-34.746;138.604;2023-06-19T14:36:18;6;6;
77777;PMS5003;66966;-34.746;138.604;2023-06-19T14:38:44;8;5;
77777;PMS5003;66966;-34.746;138.604;2023-06-19T14:41:09;6;5;
77777;PMS5003;66966;-34.746;138.604;2023-06-19T14:43:35;6;6;
77777;PMS5003;66966;-34.746;138.604;2023-06-19T14:46:01;7;6;
77777;PMS5003;66966;-34.746;138.604;2023-06-19T14:48:26;6;5;
77777;PMS5003;66966;-34.746;138.604;2023-06-19T14:50:52;5;5;
77777;PMS5003;66966;-34.746;138.604;2023-06-19T14:53:18;6;5;
77777;PMS5003;66966;-34.746;138.604;2023-06-19T14:55:43;7;5;
77777;PMS5003;66966;-34.746;138.604;2023-06-19T14:58:09;6;6;
77777;PMS5003;66966;-34.746;138.604;2023-06-19T15:00:35;5;5;
77777;PMS5003;66966;-34.746;138.604;2023-06-19T15:03:01;7;7;
77777;PMS5003;66966;-34.746;138.604;2023-06-19T15:05:27;5;4;
77777;PMS5003;66966;-34.746;138.604;2023-06-19T15:07:52;5;5;
77777;PMS5003;66966;-34.746;138.604;2023-06-19T15:10:18;3;3;
77777;PMS5003;66966;-34.746;138.604;2023-06-19T15:12:44;5;5;
77777;PMS5003;66966;-34.746;138.604;2023-06-19T15:15:10;4;4;
77777;PMS5003;66966;-34.746;138.604;2023-06-19T15:17:36;5;4;
77777;PMS5003;66966;-34.746;138.604;2023-06-19T15:20:01;3;2;
77777;PMS5003;66966;-34.746;138.604;2023-06-19T15:22:27;3;3;
77777;PMS5003;66966;-34.746;138.604;2023-06-19T15:24:53;3;3;
77777;PMS5003;66966;-34.746;138.604;2023-06-19T15:27:19;3;3;
77777;PMS5003;66966;-34.746;138.604;2023-06-19T15:29:44;4;4;
77777;PMS5003;66966;-34.746;138.604;2023-06-19T15:32:10;6;5;
77777;PMS5003;66966;-34.746;138.604;2023-06-19T15:34:36;3;3;
77777;PMS5003;66966;-34.746;138.604;2023-06-19T15:37:01;6;5;
77777;PMS5003;66966;-34.746;138.604;2023-06-19T15:39:29;2;2;
77777;PMS5003;66966;-34.746;138.604;2023-06-19T15:41:53;2;2;
77777;PMS5003;66966;-34.746;138.604;2023-06-19T15:44:19;3;3;
77777;PMS5003;66966;-34.746;138.604;2023-06-19T15:46:44;2;2;
77777;PMS5003;66966;-34.746;138.604;2023-06-19T15:49:10;2;2;